Time;durP1;ratioP1;P1;durP2;ratioP2;P2;SDS_P1;SDS_P2;PMS_P1;PMS_P2;Temp;Humidity;BMP_temperature;BMP_pressure;BME280_temperature;BME280_humidity;BME280_pressure;Samples;Min_cycle;Max_cycle;Signal;HPM_P1;HPM_P2
2023/11/07 00:01:13;;;;;;;1.13;0.50;;;7.90;99.90;;;;;;7527647;19;20028;-72
2023/11/07 00:03:46;;;;;;;1.75;0.43;;;8.00;99.90;;;;;;7514318;19;20018;-74
2023/11/07 00:06:18;;;;;;;2.40;0.80;;;8.00;99.90;;;;;;7518061;19;21511;-74
2023/11/07 00:08:51;;;;;;;1.10;0.55;;;8.00;99.90;;;;;;7532974;19;21532;-76
2023/11/07 00:11:24;;;;;;;0.82;0.40;;;8.00;99.90;;;;;;7545037;19;21349;-73
2023/11/07 00:13:56;;;;;;;0.88;0.40;;;7.90;99.90;;;;;;7531903;19;20131;-73
2023/11/07 00:16:30;;;;;;;0.80;0.60;;;7.90;99.90;;;;;;7529638;19;20034;-73
2023/11/07 00:19:03;;;;;;;2.25;0.68;;;7.90;99.90;;;;;;7539042;19;20142;-73
2023/11/07 00:21:36;;;;;;;1.60;0.60;;;7.90;99.90;;;;;;7530459;19;20356;-73
2023/11/07 00:24:08;;;;;;;1.27;0.52;;;7.90;99.90;;;;;;7539828;19;21357;-75
2023/11/07 00:26:41;;;;;;;0.77;0.57;;;7.90;99.90;;;;;;7529201;19;20011;-75
2023/11/07 00:29:15;;;;;;;0.57;0.50;;;7.90;99.90;;;;;;7538252;19;20017;-74
2023/11/07 00:31:47;;;;;;;0.93;0.60;;;7.90;99.90;;;;;;7541977;19;20026;-74
2023/11/07 00:34:20;;;;;;;1.23;0.50;;;7.90;99.90;;;;;;7557800;19;20015;-73
2023/11/07 00:36:53;;;;;;;2.40;0.68;;;7.90;99.90;;;;;;7544769;19;20025;-74
2023/11/07 00:39:25;;;;;;;0.50;0.50;;;7.90;99.90;;;;;;7495728;19;22122;-73
2023/11/07 00:41:58;;;;;;;0.63;0.50;;;7.90;99.90;;;;;;7530596;19;20022;-74
2023/11/07 00:44:31;;;;;;;0.55;0.40;;;8.00;99.90;;;;;;7524866;19;20500;-74
2023/11/07 00:47:03;;;;;;;0.60;0.40;;;8.00;99.90;;;;;;7535236;19;20953;-74
2023/11/07 00:49:36;;;;;;;1.42;0.57;;;8.00;99.90;;;;;;7542823;19;20015;-74
2023/11/07 00:52:09;;;;;;;1.55;0.57;;;8.10;99.90;;;;;;7539724;19;20014;-74
2023/11/07 00:54:42;;;;;;;0.50;0.35;;;8.10;99.90;;;;;;7544372;19;21291;-74
2023/11/07 00:57:16;;;;;;;0.95;0.30;;;8.10;99.90;;;;;;7560352;19;20331;-74
2023/11/07 00:59:49;;;;;;;0.40;0.40;;;8.10;99.90;;;;;;7525845;19;20022;-74
2023/11/07 01:02:22;;;;;;;0.60;0.40;;;8.00;99.90;;;;;;7537277;19;20015;-74
2023/11/07 01:04:55;;;;;;;1.10;0.77;;;8.10;99.90;;;;;;7552982;19;20018;-75
2023/11/07 01:07:27;;;;;;;1.05;0.60;;;8.10;99.90;;;;;;7534878;19;20014;-74
2023/11/07 01:10:00;;;;;;;1.40;0.63;;;8.10;99.90;;;;;;7532483;19;20014;-74
2023/11/07 01:12:32;;;;;;;1.55;0.52;;;8.10;99.90;;;;;;7544104;19;20018;-74
2023/11/07 01:15:05;;;;;;;4.18;1.40;;;8.10;99.90;;;;;;7522387;19;21048;-74
2023/11/07 01:17:38;;;;;;;6.82;2.03;;;8.10;99.90;;;;;;7547214;19;20011;-73
2023/11/07 01:20:11;;;;;;;7.45;2.35;;;8.00;99.90;;;;;;7548335;19;20014;-73
2023/11/07 01:22:44;;;;;;;4.72;1.73;;;8.00;99.90;;;;;;7550660;19;20028;-74
2023/11/07 01:25:17;;;;;;;2.67;0.88;;;8.00;99.90;;;;;;7554652;19;21339;-74
2023/11/07 01:27:50;;;;;;;1.30;0.77;;;8.10;99.90;;;;;;7510847;19;20023;-74
2023/11/07 01:30:22;;;;;;;2.10;0.65;;;8.00;99.90;;;;;;7538233;19;20014;-74
2023/11/07 01:32:56;;;;;;;0.70;0.50;;;8.10;99.90;;;;;;7535771;19;20018;-74
2023/11/07 01:35:28;;;;;;;1.27;0.50;;;8.10;99.90;;;;;;7524383;19;20476;-73
2023/11/07 01:38:01;;;;;;;2.05;0.70;;;8.10;99.90;;;;;;7497702;19;21441;-74
2023/11/07 01:40:34;;;;;;;0.60;0.60;;;8.10;99.90;;;;;;7517278;19;25495;-73
2023/11/07 01:43:16;;;;;;;1.65;0.50;;;8.00;99.90;;;;;;7516233;19;20046;-74
2023/11/07 01:45:48;;;;;;;0.50;0.50;;;8.00;99.90;;;;;;7526257;19;20951;-74
2023/11/07 01:48:25;;;;;;;0.77;0.40;;;8.00;99.90;;;;;;7513868;19;20014;-74
2023/11/07 01:50:58;;;;;;;0.82;0.63;;;8.00;99.90;;;;;;7504288;19;20267;-74
2023/11/07 01:53:32;;;;;;;0.40;0.40;;;7.90;99.90;;;;;;7503447;19;20022;-74
2023/11/07 01:56:04;;;;;;;2.15;0.40;;;8.00;99.90;;;;;;7513838;19;21476;-74
2023/11/07 01:58:37;;;;;;;0.40;0.30;;;7.90;99.90;;;;;;7508034;19;20395;-74
2023/11/07 02:01:10;;;;;;;1.00;0.50;;;7.90;99.90;;;;;;7518844;19;20031;-76
2023/11/07 02:03:44;;;;;;;3.13;0.75;;;7.70;99.90;;;;;;7526780;19;20689;-74
2023/11/07 02:06:16;;;;;;;1.10;0.40;;;7.70;99.90;;;;;;7479590;19;20025;-74
2023/11/07 02:08:49;;;;;;;1.15;0.50;;;7.60;99.90;;;;;;7511752;19;20026;-74
2023/11/07 02:11:24;;;;;;;0.77;0.52;;;7.70;99.90;;;;;;7512568;19;21067;-73
2023/11/07 02:13:56;;;;;;;5.60;2.13;;;7.70;99.90;;;;;;7494027;19;20018;-74
2023/11/07 02:16:29;;;;;;;8.75;2.70;;;7.70;99.90;;;;;;7500208;19;20101;-76
2023/11/07 02:19:01;;;;;;;1.15;0.70;;;7.70;99.90;;;;;;7498542;19;20056;-73
2023/11/07 02:21:35;;;;;;;1.25;0.60;;;7.60;99.90;;;;;;7489758;19;20064;-74
2023/11/07 02:24:10;;;;;;;;;;;7.60;99.90;;;;;;7488921;19;20988;-75
2023/11/07 02:26:43;;;;;;;0.65;0.65;;;7.60;99.90;;;;;;7506713;19;19919;-74
2023/11/07 02:29:15;;;;;;;0.70;0.52;;;7.60;99.90;;;;;;7496391;19;20022;-74
2023/11/07 02:31:51;;;;;;;1.17;0.60;;;7.60;99.90;;;;;;7536563;19;20724;-74
2023/11/07 02:34:23;;;;;;;0.82;0.50;;;7.50;99.90;;;;;;7550002;19;20015;-75
2023/11/07 02:36:56;;;;;;;0.77;0.40;;;7.50;99.90;;;;;;7536359;19;20048;-73
2023/11/07 02:39:29;;;;;;;1.95;0.50;;;7.50;99.90;;;;;;7526031;19;20033;-74
2023/11/07 02:42:01;;;;;;;1.60;0.50;;;7.50;99.90;;;;;;7510732;19;20022;-74
2023/11/07 02:44:34;;;;;;;;;;;7.60;99.90;;;;;;7494411;19;20022;-75
2023/11/07 02:47:07;;;;;;;2.15;0.47;;;7.50;99.90;;;;;;7528024;19;19919;-75
2023/11/07 02:49:40;;;;;;;1.20;0.57;;;7.30;99.90;;;;;;7512238;19;20018;-75
2023/11/07 02:52:12;;;;;;;6.13;0.80;;;7.30;99.90;;;;;;7526527;19;20020;-74
2023/11/07 02:54:45;;;;;;;1.17;0.60;;;7.20;99.90;;;;;;7539442;19;20018;-73
2023/11/07 02:57:18;;;;;;;1.92;0.57;;;7.10;99.90;;;;;;7518668;19;20022;-73
2023/11/07 02:59:50;;;;;;;0.67;0.40;;;7.00;99.90;;;;;;7519755;19;20133;-73
2023/11/07 03:02:24;;;;;;;0.50;0.50;;;6.90;99.90;;;;;;7505645;19;21813;-74
2023/11/07 03:04:57;;;;;;;1.58;0.70;;;6.90;99.90;;;;;;7530939;19;20595;-73
2023/11/07 03:07:29;;;;;;;1.33;0.70;;;6.90;99.90;;;;;;7513528;19;20015;-74
2023/11/07 03:10:03;;;;;;;0.50;0.50;;;6.90;99.90;;;;;;7522759;19;21352;-74
2023/11/07 03:12:36;;;;;;;0.55;0.45;;;6.80;99.90;;;;;;7531438;19;20011;-73
2023/11/07 03:15:09;;;;;;;1.95;0.70;;;6.80;99.90;;;;;;7522241;19;20080;-75
2023/11/07 03:17:42;;;;;;;2.15;0.65;;;6.80;99.90;;;;;;7526311;19;20115;-75
2023/11/07 03:20:14;;;;;;;1.65;0.40;;;6.70;99.90;;;;;;7506630;19;20021;-75
2023/11/07 03:22:47;;;;;;;0.80;0.55;;;6.70;99.90;;;;;;7523122;19;20492;-74
2023/11/07 03:25:19;;;;;;;1.07;0.40;;;6.70;99.90;;;;;;7531526;19;20018;-74
2023/11/07 03:27:53;;;;;;;1.45;0.50;;;6.80;99.90;;;;;;7515974;19;20392;-74
2023/11/07 03:30:26;;;;;;;0.45;0.45;;;6.80;99.90;;;;;;7514160;19;20014;-74
2023/11/07 03:32:58;;;;;;;0.50;0.30;;;6.70;99.90;;;;;;7507402;19;21600;-74
2023/11/07 03:35:31;;;;;;;1.03;0.60;;;6.70;99.90;;;;;;7531673;19;20477;-75
2023/11/07 03:38:04;;;;;;;0.63;0.52;;;6.70;99.90;;;;;;7503517;19;20019;-75
2023/11/07 03:40:36;;;;;;;2.03;0.80;;;6.70;99.90;;;;;;7537705;19;20026;-73
2023/11/07 03:43:08;;;;;;;2.50;0.60;;;6.70;99.90;;;;;;7535763;19;20691;-72
2023/11/07 03:45:41;;;;;;;3.03;0.73;;;6.70;99.90;;;;;;7521266;19;20017;-73
2023/11/07 03:48:14;;;;;;;2.10;0.80;;;6.70;99.90;;;;;;7519314;19;20015;-72
2023/11/07 03:50:46;;;;;;;1.13;0.60;;;6.80;99.90;;;;;;7537147;19;21367;-75
2023/11/07 03:53:19;;;;;;;0.55;0.50;;;6.80;99.90;;;;;;7524582;19;20049;-74
2023/11/07 03:55:52;;;;;;;0.60;0.40;;;6.80;99.90;;;;;;7500209;19;26294;-74
2023/11/07 03:58:24;;;;;;;0.98;0.57;;;6.80;99.90;;;;;;7508029;19;20018;-74
2023/11/07 04:00:57;;;;;;;1.10;0.73;;;6.90;99.90;;;;;;7524162;19;20006;-74
2023/11/07 04:03:29;;;;;;;0.77;0.60;;;6.80;99.90;;;;;;7515734;19;20018;-74
2023/11/07 04:06:02;;;;;;;1.45;1.15;;;6.80;99.90;;;;;;7511467;19;22070;-74
2023/11/07 04:08:34;;;;;;;2.25;1.27;;;6.80;99.90;;;;;;7529746;19;20010;-73
2023/11/07 04:11:07;;;;;;;1.37;1.20;;;6.80;99.90;;;;;;7530675;19;20030;-73
2023/11/07 04:13:41;;;;;;;1.20;1.00;;;6.90;99.90;;;;;;7520991;19;20910;-73
2023/11/07 04:16:13;;;;;;;1.40;0.73;;;6.90;99.90;;;;;;7524666;19;20940;-73
2023/11/07 04:18:46;;;;;;;0.70;0.57;;;6.90;99.90;;;;;;7530478;19;20900;-73
2023/11/07 04:21:19;;;;;;;1.25;0.65;;;6.90;99.90;;;;;;7493605;19;20165;-73
2023/11/07 04:23:51;;;;;;;1.77;1.00;;;6.80;99.90;;;;;;7524755;19;20014;-73
2023/11/07 04:26:23;;;;;;;1.67;0.60;;;6.80;99.90;;;;;;7540165;19;20811;-73
2023/11/07 04:28:55;;;;;;;1.67;0.50;;;6.80;99.90;;;;;;7510339;19;20022;-74
2023/11/07 04:31:28;;;;;;;0.82;0.60;;;6.80;99.90;;;;;;7514117;19;20017;-75
2023/11/07 04:34:00;;;;;;;1.00;0.60;;;6.80;99.90;;;;;;7518495;19;20010;-74
2023/11/07 04:36:34;;;;;;;1.38;1.13;;;6.80;99.90;;;;;;7536114;19;21449;-74
2023/11/07 04:39:09;;;;;;;1.98;1.13;;;6.80;99.90;;;;;;7531081;19;20012;-74
2023/11/07 04:41:41;;;;;;;3.22;1.02;;;6.80;99.90;;;;;;7527697;19;21436;-74
2023/11/07 04:44:15;;;;;;;2.25;1.02;;;6.80;99.90;;;;;;7492107;19;20019;-75
2023/11/07 04:46:47;;;;;;;;;;;6.80;99.90;;;;;;7512934;19;20110;-72
2023/11/07 04:49:19;;;;;;;2.78;0.60;;;6.80;99.90;;;;;;7528718;19;19926;-75
2023/11/07 04:51:52;;;;;;;2.17;0.50;;;6.80;99.90;;;;;;7522690;19;20018;-75
2023/11/07 04:54:25;;;;;;;0.40;0.40;;;6.80;99.90;;;;;;7524911;19;20021;-75
2023/11/07 04:56:57;;;;;;;0.68;0.60;;;6.70;99.90;;;;;;7510352;19;20283;-75
2023/11/07 04:59:31;;;;;;;2.95;1.25;;;6.80;99.90;;;;;;7507205;19;20060;-74
2023/11/07 05:02:06;;;;;;;1.95;0.77;;;6.90;99.90;;;;;;7524313;19;20010;-74
2023/11/07 05:04:38;;;;;;;0.73;0.68;;;6.90;99.90;;;;;;7535022;19;21997;-74
2023/11/07 05:07:12;;;;;;;0.75;0.75;;;7.00;99.90;;;;;;7507880;19;20018;-75
2023/11/07 05:09:44;;;;;;;1.05;0.80;;;7.00;99.90;;;;;;7508367;19;20063;-74
2023/11/07 05:12:16;;;;;;;0.93;0.77;;;6.90;99.90;;;;;;7466625;19;21533;-74
2023/11/07 05:14:49;;;;;;;0.80;0.70;;;6.90;99.90;;;;;;7479202;19;20018;-74
2023/11/07 05:17:21;;;;;;;0.52;0.52;;;6.90;99.90;;;;;;7496087;19;20099;-74
2023/11/07 05:19:54;;;;;;;1.83;0.60;;;6.90;99.90;;;;;;7489228;19;20399;-74
2023/11/07 05:22:26;;;;;;;0.85;0.60;;;6.90;99.90;;;;;;7523251;19;20019;-74
2023/11/07 05:24:59;;;;;;;1.37;0.97;;;6.90;99.90;;;;;;7505359;19;20022;-74
2023/11/07 05:27:31;;;;;;;5.30;3.30;;;7.00;99.90;;;;;;7498675;19;20015;-75
2023/11/07 05:30:04;;;;;;;2.97;1.63;;;7.00;99.90;;;;;;7483397;19;20026;-75
2023/11/07 05:32:37;;;;;;;2.60;1.77;;;7.00;99.90;;;;;;7505560;19;20018;-74
2023/11/07 05:35:10;;;;;;;3.22;2.00;;;7.00;99.90;;;;;;7483316;19;20019;-75
2023/11/07 05:37:45;;;;;;;3.25;1.77;;;7.00;99.90;;;;;;7511147;19;20021;-73
2023/11/07 05:40:19;;;;;;;1.45;1.20;;;6.90;99.90;;;;;;7501383;19;20118;-74
2023/11/07 05:42:54;;;;;;;3.47;1.08;;;6.90;99.90;;;;;;7456952;19;20035;-75
2023/11/07 05:45:26;;;;;;;3.42;1.00;;;6.80;99.90;;;;;;7494446;19;20006;-75
2023/11/07 05:47:59;;;;;;;2.08;1.10;;;6.70;99.90;;;;;;7497713;19;20036;-75
2023/11/07 05:50:31;;;;;;;2.15;1.17;;;6.70;99.90;;;;;;7506061;19;20029;-75
2023/11/07 05:53:05;;;;;;;2.80;1.67;;;6.70;99.90;;;;;;7518456;19;21350;-74
2023/11/07 05:55:37;;;;;;;;;;;6.70;99.90;;;;;;7515630;19;20022;-72
2023/11/07 05:58:10;;;;;;;2.95;1.00;;;6.60;99.90;;;;;;7510152;19;19923;-75
2023/11/07 06:00:46;;;;;;;2.00;1.25;;;6.60;99.90;;;;;;7496361;19;20018;-74
2023/11/07 06:03:18;;;;;;;1.35;1.00;;;6.70;99.90;;;;;;7471753;19;21557;-76
2023/11/07 06:05:51;;;;;;;1.67;1.10;;;6.70;99.90;;;;;;7494877;19;21820;-74
2023/11/07 06:08:25;;;;;;;1.63;0.98;;;6.60;99.90;;;;;;7504861;19;20822;-73
2023/11/07 06:10:57;;;;;;;3.42;1.00;;;6.50;99.90;;;;;;7500468;19;20057;-73
2023/11/07 06:13:30;;;;;;;2.08;1.23;;;6.60;99.90;;;;;;7487449;19;20566;-73
2023/11/07 06:16:06;;;;;;;2.73;1.27;;;6.60;99.90;;;;;;7503132;19;20022;-73
2023/11/07 06:18:39;;;;;;;4.22;1.60;;;6.60;99.90;;;;;;7506749;19;21815;-73
2023/11/07 06:21:12;;;;;;;4.05;1.10;;;6.60;99.90;;;;;;7487575;19;20014;-75
2023/11/07 06:23:44;;;;;;;4.15;1.17;;;6.70;99.90;;;;;;7513527;19;20014;-75
2023/11/07 06:26:17;;;;;;;1.63;1.25;;;6.70;99.90;;;;;;7500432;19;21256;-75
2023/11/07 06:28:49;;;;;;;4.82;1.17;;;6.80;99.90;;;;;;7543597;19;20059;-74
2023/11/07 06:31:26;;;;;;;2.78;1.50;;;6.70;99.90;;;;;;7491931;19;20018;-73
2023/11/07 06:33:59;;;;;;;4.53;1.52;;;6.80;99.90;;;;;;7521806;19;20014;-73
2023/11/07 06:36:32;;;;;;;9.38;1.10;;;6.90;99.90;;;;;;7522988;19;20014;-75
2023/11/07 06:39:06;;;;;;;2.43;1.27;;;6.90;99.90;;;;;;7537458;19;20021;-74
2023/11/07 06:41:38;;;;;;;2.67;1.20;;;7.00;99.90;;;;;;7513190;19;20034;-75
2023/11/07 06:44:12;;;;;;;2.75;0.93;;;7.10;99.90;;;;;;7518163;19;20024;-74
2023/11/07 06:46:47;;;;;;;3.90;1.10;;;7.10;99.90;;;;;;7511860;19;20390;-74
2023/11/07 06:49:20;;;;;;;3.03;1.30;;;7.10;99.90;;;;;;7498358;19;20040;-74
2023/11/07 06:51:54;;;;;;;4.57;1.50;;;7.00;99.90;;;;;;7531654;19;20014;-75
2023/11/07 06:54:26;;;;;;;3.28;1.17;;;6.90;99.90;;;;;;7498781;19;20019;-73
2023/11/07 06:56:59;;;;;;;3.63;0.98;;;6.90;99.90;;;;;;7467901;19;20010;-76
2023/11/07 06:59:32;;;;;;;3.47;2.05;;;6.90;99.90;;;;;;7472784;19;21714;-74
2023/11/07 07:02:05;;;;;;;5.00;2.05;;;6.90;99.90;;;;;;7461141;19;22236;-74
2023/11/07 07:04:37;;;;;;;2.90;1.60;;;6.90;99.90;;;;;;7442760;19;20036;-75
2023/11/07 07:07:12;;;;;;;8.93;1.88;;;6.90;99.90;;;;;;7507863;19;20011;-76
2023/11/07 07:09:44;;;;;;;5.65;1.80;;;7.00;99.90;;;;;;7499400;19;20665;-75
2023/11/07 07:12:17;;;;;;;3.10;2.05;;;7.00;99.90;;;;;;7516184;19;20018;-74
2023/11/07 07:14:49;;;;;;;2.05;1.50;;;7.00;99.90;;;;;;7473543;19;20048;-76
2023/11/07 07:17:22;;;;;;;4.00;1.52;;;7.00;99.90;;;;;;7487511;19;20019;-74
2023/11/07 07:19:55;;;;;;;;;;;7.00;99.90;;;;;;7451367;19;21484;-74
2023/11/07 07:22:27;;;;;;;2.60;1.83;;;7.10;99.90;;;;;;7486189;19;19960;-76
2023/11/07 07:25:05;;;;;;;7.00;2.30;;;7.10;99.90;;;;;;7535624;19;21688;-76
2023/11/07 07:27:39;;;;;;;4.28;2.20;;;7.20;99.90;;;;;;7543151;19;20015;-75
2023/11/07 07:30:32;;;;;;;5.30;2.15;;;7.20;99.90;;;;;;7524607;19;20018;-75
2023/11/07 07:33:08;;;;;;;6.15;2.35;;;7.30;99.90;;;;;;7527986;19;20128;-75
2023/11/07 07:35:45;;;;;;;5.57;2.00;;;7.40;99.90;;;;;;7524082;19;20011;-75
2023/11/07 07:38:18;;;;;;;7.88;2.40;;;7.30;99.90;;;;;;7508268;19;20014;-74
2023/11/07 07:40:50;;;;;;;6.30;2.15;;;7.40;99.90;;;;;;7471582;19;21725;-74
2023/11/07 07:43:22;;;;;;;8.63;2.70;;;7.50;99.90;;;;;;7545890;19;20371;-74
2023/11/07 07:45:57;;;;;;;4.30;2.22;;;7.60;99.90;;;;;;7546388;19;20018;-74
2023/11/07 07:48:29;;;;;;;8.15;2.28;;;7.60;99.90;;;;;;7532747;19;20682;-75
2023/11/07 07:51:06;;;;;;;3.00;1.63;;;7.60;99.90;;;;;;7552885;19;20018;-75
2023/11/07 07:53:39;;;;;;;4.35;1.73;;;7.70;99.90;;;;;;7545822;19;20022;-74
2023/11/07 07:56:13;;;;;;;3.60;1.60;;;7.70;99.90;;;;;;7551557;19;21351;-75
2023/11/07 07:58:47;;;;;;;3.65;1.27;;;7.80;99.90;;;;;;7556185;19;20015;-73
2023/11/07 08:01:19;;;;;;;3.90;1.65;;;7.70;99.90;;;;;;7535574;19;20010;-73
2023/11/07 08:03:54;;;;;;;3.08;2.28;;;7.90;99.90;;;;;;7557179;19;20365;-76
2023/11/07 08:06:27;;;;;;;5.97;2.10;;;7.90;99.90;;;;;;7548138;19;21206;-76
2023/11/07 08:08:59;;;;;;;2.67;1.50;;;8.00;99.90;;;;;;7554472;19;20022;-76
2023/11/07 08:11:32;;;;;;;5.53;1.10;;;8.00;99.90;;;;;;7519817;19;20018;-75
2023/11/07 08:14:04;;;;;;;2.38;1.10;;;8.00;99.90;;;;;;7554853;19;20717;-76
2023/11/07 08:16:36;;;;;;;3.40;1.40;;;8.00;99.90;;;;;;7549522;19;20018;-75
2023/11/07 08:19:09;;;;;;;3.92;1.40;;;8.10;99.90;;;;;;7552500;19;20019;-76
2023/11/07 08:21:43;;;;;;;3.15;1.65;;;8.10;99.90;;;;;;7556347;19;20081;-73
2023/11/07 08:24:16;;;;;;;5.15;1.50;;;8.20;99.90;;;;;;7536323;19;21554;-76
2023/11/07 08:26:50;;;;;;;4.87;1.40;;;8.20;99.90;;;;;;7549261;19;20018;-75
2023/11/07 08:29:23;;;;;;;9.98;1.98;;;8.30;99.90;;;;;;7548122;19;20363;-75
2023/11/07 08:31:55;;;;;;;5.85;1.60;;;8.30;99.90;;;;;;7543716;19;22182;-75
2023/11/07 08:34:32;;;;;;;3.92;1.95;;;8.30;99.90;;;;;;7546986;19;20044;-73
2023/11/07 08:37:10;;;;;;;6.90;2.08;;;8.40;99.90;;;;;;7553387;19;20607;-74
2023/11/07 08:39:44;;;;;;;3.40;1.52;;;8.40;99.90;;;;;;7545347;19;20022;-76
2023/11/07 08:42:17;;;;;;;4.97;2.05;;;8.50;99.90;;;;;;7540253;19;20018;-74
2023/11/07 08:44:50;;;;;;;2.23;1.20;;;8.50;99.90;;;;;;7545484;19;20007;-74
2023/11/07 08:47:23;;;;;;;3.33;1.33;;;8.60;99.90;;;;;;7549231;19;20017;-74
2023/11/07 08:49:57;;;;;;;2.22;1.05;;;8.70;99.90;;;;;;7552597;19;20019;-74
2023/11/07 08:52:29;;;;;;;2.42;1.50;;;8.70;99.90;;;;;;7546210;19;20101;-74
2023/11/07 08:55:05;;;;;;;4.70;1.83;;;8.80;99.90;;;;;;7558748;19;20014;-74
2023/11/07 08:57:40;;;;;;;5.50;1.67;;;8.80;99.90;;;;;;7500127;19;20049;-74
2023/11/07 09:00:14;;;;;;;4.55;1.67;;;8.80;99.90;;;;;;7503966;19;20025;-74
2023/11/07 09:02:48;;;;;;;5.18;1.70;;;8.80;99.90;;;;;;7504855;19;20018;-74
2023/11/07 09:05:22;;;;;;;3.42;1.77;;;8.90;99.90;;;;;;7518888;19;20035;-74
2023/11/07 09:07:55;;;;;;;5.50;1.60;;;9.00;99.90;;;;;;7495701;19;21941;-73
2023/11/07 09:10:28;;;;;;;5.75;1.60;;;9.00;99.90;;;;;;7509209;19;21190;-74
2023/11/07 09:13:03;;;;;;;4.70;1.35;;;9.00;99.90;;;;;;7510572;19;21357;-73
2023/11/07 09:15:36;;;;;;;9.98;2.17;;;9.10;99.90;;;;;;7507995;19;20021;-74
2023/11/07 09:18:08;;;;;;;6.15;1.60;;;9.10;99.90;;;;;;7505981;19;20027;-73
2023/11/07 09:20:42;;;;;;;4.70;1.55;;;9.20;99.90;;;;;;7498174;19;20015;-73
2023/11/07 09:23:14;;;;;;;;;;;9.20;99.90;;;;;;7498884;19;20018;-73
2023/11/07 09:25:48;;;;;;;1.92;1.20;;;9.20;99.90;;;;;;7507474;19;20823;-73
2023/11/07 09:28:20;;;;;;;4.38;1.50;;;9.30;99.90;;;;;;7511958;19;20007;-73
2023/11/07 09:30:53;;;;;;;3.45;1.85;;;9.30;99.90;;;;;;7510317;19;20599;-73
2023/11/07 09:33:26;;;;;;;2.17;1.50;;;9.30;99.90;;;;;;7508668;19;21461;-73
2023/11/07 09:36:00;;;;;;;4.47;2.08;;;9.40;99.90;;;;;;7565462;19;20018;-73
2023/11/07 09:38:33;;;;;;;5.63;1.50;;;9.40;99.90;;;;;;7561738;19;20010;-73
2023/11/07 09:41:23;;;;;;;2.55;1.50;;;9.50;99.90;;;;;;7561193;19;20011;-73
2023/11/07 09:43:56;;;;;;;6.72;1.33;;;9.60;99.90;;;;;;7548784;19;20011;-73
2023/11/07 09:46:32;;;;;;;5.15;1.10;;;9.60;99.90;;;;;;7559890;19;20098;-73
2023/11/07 09:49:07;;;;;;;3.08;1.00;;;9.70;99.90;;;;;;7540195;19;21788;-73
2023/11/07 09:51:40;;;;;;;2.85;1.20;;;9.80;99.90;;;;;;7558999;19;20016;-73
2023/11/07 09:54:14;;;;;;;1.48;0.80;;;9.90;99.90;;;;;;7580007;19;20579;-73
2023/11/07 09:56:51;;;;;;;3.03;1.23;;;10.00;99.90;;;;;;7570209;19;20014;-73
2023/11/07 09:59:37;;;;;;;5.78;1.60;;;10.00;99.90;;;;;;7570816;19;20058;-74
2023/11/07 10:02:10;;;;;;;1.83;1.10;;;10.10;99.90;;;;;;7566374;19;20106;-73
2023/11/07 10:04:47;;;;;;;4.40;1.88;;;10.20;99.90;;;;;;7576751;19;20618;-74
2023/11/07 10:07:21;;;;;;;4.43;1.40;;;10.20;99.90;;;;;;7561013;19;20018;-73
2023/11/07 10:09:54;;;;;;;1.77;1.10;;;10.30;99.90;;;;;;7563939;19;20035;-73
2023/11/07 10:12:28;;;;;;;4.60;1.65;;;10.30;99.90;;;;;;7570241;19;20018;-74
2023/11/07 10:15:24;;;;;;;2.83;1.40;;;10.30;99.90;;;;;;7562238;19;20007;-73
2023/11/07 10:18:06;;;;;;;3.50;1.10;;;10.30;99.90;;;;;;7564028;19;20014;-73
2023/11/07 10:20:50;;;;;;;5.35;1.30;;;10.30;99.90;;;;;;7568129;19;20025;-73
2023/11/07 10:23:22;;;;;;;;;;;10.30;99.90;;;;;;7561234;19;20010;-73
2023/11/07 10:26:11;;;;;;;3.78;0.98;;;10.20;99.90;;;;;;7576073;19;19923;-73
2023/11/07 10:28:44;;;;;;;4.40;1.40;;;10.20;99.90;;;;;;7566471;19;20125;-73
2023/11/07 10:31:23;;;;;;;4.65;1.20;;;10.20;99.90;;;;;;7571543;19;20018;-73
2023/11/07 10:34:12;;;;;;;4.10;1.00;;;10.10;99.90;;;;;;7575921;19;20018;-74
2023/11/07 10:36:45;;;;;;;1.27;0.85;;;10.10;99.90;;;;;;7563059;19;20057;-73
2023/11/07 10:39:21;;;;;;;2.13;1.10;;;10.10;99.90;;;;;;7569265;19;20022;-73
2023/11/07 10:41:58;;;;;;;2.45;1.15;;;10.20;99.90;;;;;;7574952;19;20022;-73
2023/11/07 10:44:31;;;;;;;3.60;1.20;;;10.20;99.90;;;;;;7540787;19;20123;-73
2023/11/07 10:47:04;;;;;;;4.75;0.90;;;10.20;99.90;;;;;;7557667;19;20014;-73
2023/11/07 10:49:37;;;;;;;3.88;0.95;;;10.20;99.90;;;;;;7553141;19;20006;-73
2023/11/07 10:52:09;;;;;;;2.90;1.10;;;10.30;99.90;;;;;;7552006;19;20022;-73
2023/11/07 10:54:42;;;;;;;2.35;1.33;;;10.30;99.90;;;;;;7558070;19;20027;-73
2023/11/07 10:57:22;;;;;;;2.65;1.30;;;10.30;99.90;;;;;;7569577;19;20018;-73
2023/11/07 11:00:12;;;;;;;1.17;1.00;;;10.40;99.90;;;;;;7566706;19;20025;-75
2023/11/07 11:02:50;;;;;;;2.55;1.40;;;10.40;99.90;;;;;;7570921;19;20006;-75
2023/11/07 11:05:24;;;;;;;3.90;1.27;;;10.20;99.90;;;;;;7567264;19;20023;-75
2023/11/07 11:07:59;;;;;;;5.72;2.20;;;10.20;99.90;;;;;;7554855;19;20018;-75
2023/11/07 11:10:35;;;;;;;2.70;1.63;;;10.20;99.90;;;;;;7554782;19;20007;-75
2023/11/07 11:13:14;;;;;;;1.98;1.30;;;10.10;99.90;;;;;;7542526;19;21503;-74
2023/11/07 11:15:49;;;;;;;6.78;1.88;;;10.10;99.90;;;;;;7539193;19;20021;-74
2023/11/07 11:18:31;;;;;;;2.28;1.30;;;10.20;99.90;;;;;;7536659;19;20057;-74
2023/11/07 11:21:35;;;;;;;5.45;1.40;;;10.10;99.90;;;;;;7552047;19;20052;-75
2023/11/07 11:24:15;;;;;;;;;;;10.10;99.90;;;;;;7557053;19;20021;-73
2023/11/07 11:27:23;;;;;;;2.10;1.17;;;10.20;99.90;;;;;;7550368;19;20018;-73
2023/11/07 11:29:55;;;;;;;2.00;1.42;;;10.10;99.90;;;;;;7545579;19;20018;-74
2023/11/07 11:32:31;;;;;;;3.83;1.58;;;10.10;99.90;;;;;;7545213;19;20014;-75
2023/11/07 11:35:15;;;;;;;3.95;1.70;;;10.10;99.90;;;;;;7541007;19;20048;-75
2023/11/07 11:38:11;;;;;;;3.35;1.80;;;9.90;99.90;;;;;;7553520;19;20111;-75
2023/11/07 11:40:59;;;;;;;2.97;1.70;;;9.90;99.90;;;;;;7556426;19;20022;-75
2023/11/07 11:43:34;;;;;;;3.00;1.50;;;9.80;99.90;;;;;;7538298;19;20024;-75
2023/11/07 11:46:15;;;;;;;2.63;1.50;;;9.70;99.90;;;;;;7552221;19;20060;-76
2023/11/07 11:48:51;;;;;;;1.52;1.30;;;9.70;99.90;;;;;;7557241;19;20029;-75
2023/11/07 11:51:31;;;;;;;3.55;1.50;;;9.70;99.90;;;;;;7547180;19;20010;-74
2023/11/07 11:54:06;;;;;;;4.55;1.27;;;9.60;99.90;;;;;;7549722;19;22345;-75
2023/11/07 11:56:50;;;;;;;2.42;1.85;;;9.50;99.90;;;;;;7554186;19;20015;-75
2023/11/07 11:59:25;;;;;;;3.55;1.30;;;9.40;99.90;;;;;;7557500;19;20010;-75
2023/11/07 12:02:04;;;;;;;3.38;1.38;;;9.50;99.90;;;;;;7547123;19;20679;-74
2023/11/07 12:04:47;;;;;;;4.28;1.73;;;9.50;99.90;;;;;;7545195;19;20111;-75
2023/11/07 12:07:21;;;;;;;7.28;2.17;;;9.50;99.90;;;;;;7555736;19;20018;-75
2023/11/07 12:09:57;;;;;;;4.68;1.60;;;9.40;99.90;;;;;;7562410;19;21433;-74
2023/11/07 12:12:30;;;;;;;4.00;1.40;;;9.40;99.90;;;;;;7569397;19;20057;-74
2023/11/07 12:15:06;;;;;;;2.22;1.50;;;9.40;99.90;;;;;;7555812;19;20015;-74
2023/11/07 12:17:46;;;;;;;5.20;1.40;;;9.40;99.90;;;;;;7559362;19;20010;-74
2023/11/07 12:20:19;;;;;;;3.75;1.25;;;9.30;99.90;;;;;;7558680;19;20018;-74
2023/11/07 12:22:52;;;;;;;4.55;1.60;;;9.30;99.90;;;;;;7548909;19;20055;-77
2023/11/07 12:25:25;;;;;;;3.33;1.40;;;9.30;99.90;;;;;;7572368;19;20006;-73
2023/11/07 12:28:05;;;;;;;3.03;1.38;;;9.30;99.90;;;;;;7562554;19;20018;-73
2023/11/07 12:30:39;;;;;;;3.28;1.55;;;9.30;99.90;;;;;;7540414;19;20093;-75
2023/11/07 12:33:12;;;;;;;2.08;1.30;;;9.30;99.90;;;;;;7553988;19;20018;-73
2023/11/07 12:35:45;;;;;;;2.70;1.20;;;9.30;99.90;;;;;;7535093;19;20026;-73
2023/11/07 12:38:19;;;;;;;6.47;1.40;;;9.30;99.90;;;;;;7557488;19;20018;-75
2023/11/07 12:40:52;;;;;;;4.57;1.30;;;9.30;99.90;;;;;;7553692;19;20015;-75
2023/11/07 12:43:40;;;;;;;2.22;1.27;;;9.30;99.90;;;;;;7547022;19;20022;-74
2023/11/07 12:46:18;;;;;;;4.53;1.73;;;9.30;99.90;;;;;;7570362;19;20380;-74
2023/11/07 12:48:53;;;;;;;2.53;1.52;;;9.40;99.90;;;;;;7556130;19;21445;-74
2023/11/07 12:51:26;;;;;;;4.60;1.92;;;9.50;99.90;;;;;;7529556;19;21477;-74
2023/11/07 12:54:03;;;;;;;5.00;2.10;;;9.60;99.90;;;;;;7561617;19;20015;-74
2023/11/07 12:56:45;;;;;;;4.63;2.05;;;9.70;99.90;;;;;;7561825;19;20006;-74
2023/11/07 12:59:18;;;;;;;2.50;1.50;;;9.80;99.90;;;;;;7558295;19;20025;-75
2023/11/07 13:01:52;;;;;;;1.92;1.40;;;9.90;99.90;;;;;;7544130;19;20052;-75
2023/11/07 13:04:25;;;;;;;5.15;1.80;;;10.10;99.90;;;;;;7457441;19;20010;-75
2023/11/07 13:07:01;;;;;;;3.67;1.77;;;10.20;99.90;;;;;;7482287;19;20025;-75
2023/11/07 13:09:33;;;;;;;5.82;1.65;;;10.20;99.90;;;;;;7507409;19;20014;-74
2023/11/07 13:12:10;;;;;;;3.80;1.20;;;10.20;99.90;;;;;;7565314;19;20010;-74
2023/11/07 13:14:43;;;;;;;3.38;1.40;;;10.20;99.90;;;;;;7564586;19;20014;-74
2023/11/07 13:17:15;;;;;;;1.70;1.13;;;10.10;99.90;;;;;;7555518;19;20142;-75
2023/11/07 13:19:50;;;;;;;4.70;1.48;;;10.00;99.90;;;;;;7559275;19;20018;-74
2023/11/07 13:22:23;;;;;;;2.67;1.67;;;9.90;99.90;;;;;;7559672;19;20579;-74
2023/11/07 13:24:55;;;;;;;6.23;1.37;;;9.90;99.90;;;;;;7554869;19;20017;-74
2023/11/07 13:27:28;;;;;;;2.90;1.63;;;9.80;99.90;;;;;;7561897;19;20477;-74
2023/11/07 13:30:05;;;;;;;4.45;1.70;;;9.80;99.90;;;;;;7548958;19;20006;-75
2023/11/07 13:32:37;;;;;;;2.70;1.63;;;9.80;99.90;;;;;;7555180;19;20131;-74
2023/11/07 13:35:11;;;;;;;3.17;1.73;;;9.70;99.90;;;;;;7570788;19;20010;-74